createdAt,value
2022-09-23T00:01:04.290Z,10.73
2022-09-23T00:03:32.988Z,9.38
2022-09-23T00:06:01.692Z,10.90
2022-09-23T00:08:29.405Z,10.40
2022-09-23T00:10:56.461Z,10.55
2022-09-23T00:13:24.834Z,10.52
2022-09-23T00:15:52.131Z,10.23
2022-09-23T00:18:20.798Z,10.23
2022-09-23T00:20:47.943Z,10.32
2022-09-23T00:23:14.840Z,10.90
2022-09-23T00:25:41.860Z,10.13
2022-09-23T00:28:08.461Z,11.02
2022-09-23T00:30:35.185Z,10.32
2022-09-23T00:33:02.095Z,10.23
2022-09-23T00:35:28.799Z,10.45
2022-09-23T00:37:56.181Z,11.30
2022-09-23T00:40:23.166Z,10.38
2022-09-23T00:42:52.033Z,10.63
2022-09-23T00:45:19.511Z,10.48
2022-09-23T00:47:58.154Z,10.88
2022-09-23T00:50:36.580Z,11.20
2022-09-23T00:53:08.371Z,11.15
2022-09-23T00:55:40.215Z,11.15
2022-09-23T00:58:11.218Z,11.20
2022-09-23T01:00:38.603Z,11.07
2022-09-23T01:03:06.885Z,12.37
2022-09-23T01:05:34.346Z,12.00
2022-09-23T01:08:04.363Z,11.60
2022-09-23T01:10:43.045Z,13.48
2022-09-23T01:13:26.765Z,12.70
2022-09-23T01:16:13.815Z,12.85
2022-09-23T01:18:59.649Z,11.98
2022-09-23T01:21:41.272Z,12.93
2022-09-23T01:24:37.427Z,11.82
2022-09-23T01:27:37.359Z,12.15
2022-09-23T01:30:32.989Z,11.40
2022-09-23T01:33:09.966Z,12.88
2022-09-23T01:35:43.090Z,11.05
2022-09-23T01:38:34.535Z,10.20
2022-09-23T01:41:15.615Z,9.85
2022-09-23T01:43:57.994Z,9.23
2022-09-23T01:46:33.051Z,9.25
2022-09-23T01:49:16.079Z,10.10
2022-09-23T01:51:49.413Z,10.10
2022-09-23T01:54:21.921Z,10.40
2022-09-23T01:57:11.146Z,10.10
2022-09-23T01:59:51.036Z,10.05
2022-09-23T02:02:23.900Z,10.30
2022-09-23T02:05:05.224Z,9.15
2022-09-23T02:07:41.347Z,9.45
2022-09-23T02:10:20.049Z,10.48
2022-09-23T02:12:52.235Z,9.93
2022-09-23T02:15:23.656Z,10.05
2022-09-23T02:17:59.527Z,9.52
2022-09-23T02:20:33.236Z,10.18
2022-09-23T02:23:06.367Z,9.82
2022-09-23T02:25:57.996Z,10.20
2022-09-23T02:28:43.533Z,10.90
2022-09-23T02:31:20.021Z,10.35
2022-09-23T02:33:57.240Z,9.45
2022-09-23T02:36:42.409Z,10.30
2022-09-23T02:39:13.042Z,8.95
2022-09-23T02:41:51.928Z,9.88
2022-09-23T02:44:20.711Z,9.05
2022-09-23T02:46:50.202Z,9.82
2022-09-23T02:49:21.710Z,9.27
2022-09-23T02:54:22.073Z,9.43
2022-09-23T02:56:49.581Z,9.13
2022-09-23T02:59:19.529Z,8.95
2022-09-23T03:02:20.666Z,9.52
2022-09-23T03:05:07.391Z,9.87
2022-09-23T03:07:52.639Z,9.63
2022-09-23T03:10:34.068Z,10.38
2022-09-23T03:13:12.253Z,9.48
2022-09-23T03:15:53.484Z,10.30
2022-09-23T03:18:35.488Z,9.57
2022-09-23T03:21:08.562Z,10.13
2022-09-23T03:23:39.219Z,10.55
2022-09-23T03:26:12.378Z,9.63
2022-09-23T03:28:42.768Z,10.32
2022-09-23T03:31:13.105Z,10.02
2022-09-23T03:33:45.288Z,9.45
2022-09-23T03:36:33.386Z,10.35
2022-09-23T03:39:08.183Z,9.82
2022-09-23T03:41:42.521Z,9.85
2022-09-23T03:44:10.579Z,10.32
2022-09-23T03:46:37.615Z,10.98
2022-09-23T03:49:11.148Z,11.05
2022-09-23T03:51:41.554Z,9.75
2022-09-23T03:54:11.235Z,10.63
2022-09-23T03:56:38.465Z,9.93
2022-09-23T03:59:05.374Z,10.80
2022-09-23T04:01:32.574Z,10.60
2022-09-23T04:04:00.298Z,9.98
2022-09-23T04:06:27.235Z,8.88
2022-09-23T04:08:54.134Z,9.63
2022-09-23T04:11:21.236Z,9.07
2022-09-23T04:13:48.045Z,9.80
2022-09-23T04:16:15.344Z,9.43
2022-09-23T04:18:43.001Z,9.38
2022-09-23T04:21:09.857Z,9.57
2022-09-23T04:23:36.781Z,8.70
2022-09-23T04:26:05.505Z,9.27
2022-09-23T04:28:32.746Z,9.43
2022-09-23T04:31:00.298Z,10.68
2022-09-23T04:33:27.387Z,9.82
2022-09-23T04:35:56.198Z,9.43
2022-09-23T04:38:23.028Z,9.35
2022-09-23T04:40:50.309Z,10.38
2022-09-23T04:43:17.403Z,9.60
2022-09-23T04:45:44.776Z,8.95
2022-09-23T04:48:13.938Z,10.10
2022-09-23T04:50:40.769Z,11.02
2022-09-23T04:53:08.154Z,11.85
2022-09-23T04:55:35.256Z,10.55
2022-09-23T04:58:02.048Z,11.45
2022-09-23T05:00:28.958Z,11.95
2022-09-23T05:02:56.132Z,12.40
2022-09-23T05:05:24.210Z,13.05
2022-09-23T05:07:51.255Z,13.32
2022-09-23T05:10:18.423Z,12.73
2022-09-23T05:12:45.395Z,12.48
2022-09-23T05:15:13.145Z,11.85
2022-09-23T05:17:40.437Z,10.80
2022-09-23T05:20:08.186Z,11.07
2022-09-23T05:22:35.166Z,10.05
2022-09-23T05:25:02.883Z,10.80
2022-09-23T05:27:29.704Z,9.90
2022-09-23T05:29:56.519Z,10.25
2022-09-23T05:32:23.723Z,10.32
2022-09-23T05:34:50.658Z,10.20
2022-09-23T05:37:17.459Z,10.50
2022-09-23T05:39:44.601Z,10.48
2022-09-23T05:42:12.486Z,12.00
2022-09-23T05:44:39.368Z,13.38
2022-09-23T05:47:06.659Z,10.07
2022-09-23T05:49:58.047Z,11.82
2022-09-23T05:52:21.101Z,10.55
2022-09-23T05:54:47.939Z,8.55
2022-09-23T05:57:14.876Z,9.65
2022-09-23T05:59:47.370Z,9.35
2022-09-23T06:02:15.196Z,9.98
2022-09-23T06:04:43.087Z,9.15
2022-09-23T06:07:10.841Z,8.93
2022-09-23T06:09:37.864Z,9.15
2022-09-23T06:12:06.461Z,9.55
2022-09-23T06:14:33.453Z,9.90
2022-09-23T06:17:00.342Z,10.70
2022-09-23T06:19:27.443Z,9.77
2022-09-23T06:21:54.328Z,9.82
2022-09-23T06:24:25.982Z,12.32
2022-09-23T06:26:55.875Z,9.88
2022-09-23T06:29:22.686Z,9.35
2022-09-23T06:31:50.375Z,9.13
2022-09-23T06:34:18.024Z,10.77
2022-09-23T06:36:46.569Z,10.15
2022-09-23T06:39:17.096Z,9.82
2022-09-23T06:41:45.535Z,10.20
2022-09-23T06:44:14.009Z,10.80
2022-09-23T06:46:41.333Z,10.35
2022-09-23T06:49:08.761Z,10.15
2022-09-23T06:51:35.616Z,9.25
2022-09-23T06:54:02.706Z,10.00
2022-09-23T06:56:32.530Z,9.50
2022-09-23T06:59:01.853Z,9.60
2022-09-23T07:01:29.499Z,9.75
2022-09-23T07:03:56.677Z,8.85
2022-09-23T07:06:23.506Z,8.88
2022-09-23T07:08:51.316Z,10.25
2022-09-23T07:11:22.406Z,9.70
2022-09-23T07:13:49.872Z,10.30
2022-09-23T07:16:17.230Z,10.18
2022-09-23T07:18:45.115Z,9.65
2022-09-23T07:21:15.466Z,9.35
2022-09-23T07:23:44.560Z,10.35
2022-09-23T07:26:13.201Z,10.98
2022-09-23T07:28:40.501Z,9.85
2022-09-23T07:31:10.448Z,11.10
2022-09-23T07:33:39.935Z,10.63
2022-09-23T07:36:10.193Z,10.50
2022-09-23T07:38:42.857Z,10.48
2022-09-23T07:41:15.769Z,9.90
2022-09-23T07:43:44.170Z,9.55
2022-09-23T07:46:16.575Z,4.70
2022-09-23T07:48:45.869Z,3.30
2022-09-23T07:51:18.664Z,2.40
2022-09-23T07:53:50.671Z,2.20
2022-09-23T07:56:19.385Z,2.20
2022-09-23T07:59:03.723Z,2.20
2022-09-23T08:01:36.730Z,2.33
2022-09-23T08:04:07.802Z,2.08
2022-09-23T08:06:48.650Z,6.37
2022-09-23T08:09:17.771Z,3.53
2022-09-23T08:11:44.944Z,3.20
2022-09-23T08:14:13.631Z,2.12
2022-09-23T08:16:42.219Z,1.90
2022-09-23T08:19:09.087Z,1.90
2022-09-23T08:21:37.682Z,2.10
2022-09-23T08:24:06.868Z,2.67
2022-09-23T08:26:34.341Z,2.55
2022-09-23T08:29:01.622Z,2.17
2022-09-23T08:31:28.877Z,2.87
2022-09-23T08:33:57.019Z,4.12
2022-09-23T08:36:24.415Z,5.30
2022-09-23T08:38:52.239Z,5.60
2022-09-23T08:41:40.058Z,6.12
2022-09-23T08:44:16.525Z,5.37
2022-09-23T08:46:52.722Z,6.22
2022-09-23T08:49:39.437Z,6.03
2022-09-23T08:52:21.473Z,6.30
2022-09-23T08:54:53.150Z,7.12
2022-09-23T09:00:53.432Z,7.82
2022-09-23T09:03:26.401Z,6.87
2022-09-23T09:05:55.230Z,8.05
2022-09-23T09:08:36.096Z,7.35
2022-09-23T09:11:03.738Z,7.12
2022-09-23T09:13:33.043Z,8.25
2022-09-23T09:16:15.156Z,7.57
2022-09-23T09:18:55.190Z,7.20
2022-09-23T09:21:32.487Z,6.22
2022-09-23T09:24:00.384Z,5.85
2022-09-23T09:26:30.986Z,5.70
2022-09-23T09:29:17.113Z,5.85
2022-09-23T09:31:50.941Z,6.60
2022-09-23T09:34:44.559Z,6.53
2022-09-23T09:37:33.699Z,6.72
2022-09-23T09:40:00.704Z,6.97
2022-09-23T09:42:40.118Z,7.12
2022-09-23T09:45:15.042Z,7.37
2022-09-23T09:47:52.233Z,6.47
2022-09-23T09:50:49.610Z,7.12
2022-09-23T09:53:21.904Z,5.90
2022-09-23T09:58:46.455Z,5.90
2022-09-23T10:01:31.960Z,5.00
2022-09-23T10:04:03.699Z,4.95
2022-09-23T10:06:35.740Z,4.75
2022-09-23T10:09:17.142Z,4.50
2022-09-23T10:12:03.316Z,4.45
2022-09-23T10:14:31.652Z,4.60
2022-09-23T10:17:05.654Z,3.95
2022-09-23T10:19:35.997Z,3.12
2022-09-23T10:22:09.781Z,3.35
2022-09-23T10:24:37.042Z,4.50
2022-09-23T10:27:12.144Z,4.60
2022-09-23T10:30:00.613Z,4.20
2022-09-23T10:32:30.861Z,4.78
2022-09-23T10:35:10.696Z,4.20
2022-09-23T10:37:50.692Z,4.22
2022-09-23T10:40:49.365Z,4.22
2022-09-23T10:43:51.820Z,3.83
2022-09-23T10:46:38.917Z,3.97
2022-09-23T10:49:44.543Z,3.47
2022-09-23T10:52:24.062Z,4.10
2022-09-23T10:55:09.467Z,4.15
2022-09-23T10:57:45.904Z,4.53
2022-09-23T11:00:51.887Z,4.43
2022-09-23T11:03:38.797Z,4.47
2022-09-23T11:06:25.148Z,4.55
2022-09-23T11:09:02.182Z,4.72
2022-09-23T11:11:50.236Z,4.97
2022-09-23T11:14:23.238Z,4.55
2022-09-23T11:16:58.594Z,5.47
2022-09-23T11:20:05.330Z,4.80
2022-09-23T11:22:49.745Z,4.32
2022-09-23T11:25:30.486Z,3.55
2022-09-23T11:28:30.534Z,3.20
2022-09-23T11:31:31.605Z,2.30
2022-09-23T11:34:04.398Z,2.40
2022-09-23T11:36:37.862Z,2.05
2022-09-23T11:39:24.108Z,2.05
2022-09-23T11:41:56.387Z,2.75
2022-09-23T11:44:37.592Z,2.83
2022-09-23T11:47:11.076Z,2.20
2022-09-23T11:49:47.689Z,2.05
2022-09-23T11:52:32.055Z,1.58
2022-09-23T11:55:27.618Z,2.50
2022-09-23T11:58:01.052Z,1.80
2022-09-23T12:00:36.311Z,1.70
2022-09-23T12:03:18.496Z,1.90
2022-09-23T12:05:51.594Z,1.65
2022-09-23T12:08:34.600Z,1.95
2022-09-23T12:11:31.028Z,1.65
2022-09-23T12:14:04.352Z,1.73
2022-09-23T12:17:04.735Z,1.60
2022-09-23T12:20:04.183Z,1.70
2022-09-23T12:22:57.584Z,2.15
2022-09-23T12:25:40.957Z,1.67
2022-09-23T12:28:15.527Z,1.73
2022-09-23T12:30:43.671Z,1.80
2022-09-23T12:33:24.856Z,2.25
2022-09-23T12:35:54.981Z,2.10
2022-09-23T12:38:30.648Z,2.10
2022-09-23T12:40:58.043Z,2.08
2022-09-23T12:43:34.579Z,2.00
2022-09-23T12:46:27.792Z,2.60
2022-09-23T12:48:57.398Z,2.50
2022-09-23T12:51:26.643Z,2.58
2022-09-23T12:53:59.738Z,2.87
2022-09-23T12:56:31.710Z,2.85
2022-09-23T12:59:00.912Z,2.62
2022-09-23T13:01:36.227Z,2.08
2022-09-23T13:04:22.168Z,2.42
2022-09-23T13:07:09.124Z,2.03
2022-09-23T13:09:46.649Z,1.98
2022-09-23T13:12:29.668Z,1.75
2022-09-23T13:15:00.858Z,2.03
2022-09-23T13:17:34.531Z,1.52
2022-09-23T13:20:21.104Z,1.58
2022-09-23T13:22:51.978Z,1.52
2022-09-23T13:25:27.919Z,1.83
2022-09-23T13:27:58.676Z,2.33
2022-09-23T13:30:28.914Z,2.58
2022-09-23T13:33:19.237Z,2.00
2022-09-23T13:35:51.551Z,2.45
2022-09-23T13:38:26.204Z,2.00
2022-09-23T13:41:08.041Z,2.25
2022-09-23T13:43:41.557Z,1.90
2022-09-23T13:46:16.132Z,2.50
2022-09-23T13:48:45.889Z,2.08
2022-09-23T13:51:27.903Z,2.85
2022-09-23T13:53:57.914Z,2.90
2022-09-23T13:56:28.233Z,3.40
2022-09-23T13:59:20.391Z,2.62
2022-09-23T14:01:47.363Z,2.60
2022-09-23T14:04:25.490Z,2.37
2022-09-23T14:06:54.666Z,2.45
2022-09-23T14:09:27.490Z,2.60
2022-09-23T14:11:58.275Z,2.30
2022-09-23T14:14:28.069Z,2.80
2022-09-23T14:16:56.227Z,3.25
2022-09-23T14:19:25.445Z,3.22
2022-09-23T14:21:54.674Z,3.42
2022-09-23T14:24:34.567Z,3.47
2022-09-23T14:27:14.863Z,2.80
2022-09-23T14:29:45.172Z,2.55
2022-09-23T14:32:21.127Z,2.85
2022-09-23T14:35:09.357Z,2.85
2022-09-23T14:37:55.096Z,4.03
2022-09-23T14:40:26.614Z,3.15
2022-09-23T14:45:40.757Z,4.50
2022-09-23T14:48:16.437Z,2.97
2022-09-23T14:50:54.733Z,4.97
2022-09-23T14:53:22.599Z,5.72
2022-09-23T14:55:57.482Z,3.50
2022-09-23T14:58:31.683Z,3.60
2022-09-23T15:01:01.135Z,3.47
2022-09-23T15:03:29.202Z,3.60
2022-09-23T15:06:08.795Z,3.37
2022-09-23T15:08:37.369Z,3.50
2022-09-23T15:11:08.063Z,3.42
2022-09-23T15:13:41.800Z,3.30
2022-09-23T15:16:09.579Z,4.03
2022-09-23T15:18:41.548Z,4.37
2022-09-23T15:21:11.173Z,3.90
2022-09-23T15:23:44.703Z,3.83
2022-09-23T15:26:16.775Z,4.12
2022-09-23T15:28:45.075Z,3.90
2022-09-23T15:31:15.158Z,4.30
2022-09-23T15:33:49.326Z,3.80
2022-09-23T15:36:17.779Z,3.97
2022-09-23T15:38:45.165Z,4.37
2022-09-23T15:41:14.339Z,3.90
2022-09-23T15:43:42.136Z,4.10
2022-09-23T15:46:28.188Z,3.83
2022-09-23T15:49:04.870Z,4.05
2022-09-23T15:51:32.244Z,4.07
2022-09-23T15:53:59.486Z,3.75
2022-09-23T15:56:29.234Z,4.20
2022-09-23T15:58:56.085Z,4.00
2022-09-23T16:01:30.369Z,4.10
2022-09-23T16:04:01.178Z,5.60
2022-09-23T16:06:28.573Z,4.12
2022-09-23T16:08:55.962Z,4.32
2022-09-23T16:11:31.833Z,4.60
2022-09-23T16:14:00.581Z,4.30
2022-09-23T16:16:28.440Z,4.05
2022-09-23T16:18:55.598Z,3.85
2022-09-23T16:21:25.902Z,4.50
2022-09-23T16:23:54.752Z,4.18
2022-09-23T16:26:29.748Z,4.35
2022-09-23T16:28:58.667Z,4.37
2022-09-23T16:31:29.708Z,4.68
2022-09-23T16:34:00.263Z,4.55
2022-09-23T16:36:31.196Z,4.68
2022-09-23T16:39:00.433Z,4.53
2022-09-23T16:41:32.265Z,4.75
2022-09-23T16:44:01.653Z,4.32
2022-09-23T16:46:29.329Z,4.07
2022-09-23T16:48:57.721Z,4.60
2022-09-23T16:51:27.456Z,4.18
2022-09-23T16:53:56.084Z,4.20
2022-09-23T16:56:28.689Z,5.20
2022-09-23T16:58:56.895Z,4.18
2022-09-23T17:01:47.468Z,4.32
2022-09-23T17:04:16.577Z,4.32
2022-09-23T17:06:46.372Z,4.37
2022-09-23T17:09:13.271Z,5.43
2022-09-23T17:11:40.542Z,5.97
2022-09-23T17:14:07.415Z,7.60
2022-09-23T17:16:35.030Z,8.27
2022-09-23T17:19:08.236Z,8.98
2022-09-23T17:21:35.577Z,9.15
2022-09-23T17:24:03.618Z,10.07
2022-09-23T17:26:31.098Z,10.00
2022-09-23T17:28:59.613Z,9.57
2022-09-23T17:31:26.978Z,9.82
2022-09-23T17:33:54.309Z,8.38
2022-09-23T17:36:21.960Z,8.15
2022-09-23T17:38:53.632Z,8.80
2022-09-23T17:41:21.090Z,9.70
2022-09-23T17:43:53.422Z,8.80
2022-09-23T17:46:20.650Z,9.52
2022-09-23T17:48:47.984Z,9.20
2022-09-23T17:51:18.886Z,9.95
2022-09-23T17:53:47.297Z,10.05
2022-09-23T17:56:22.684Z,9.25
2022-09-23T17:58:50.431Z,10.65
2022-09-23T18:01:20.721Z,9.05
2022-09-23T18:03:48.700Z,9.70
2022-09-23T18:06:20.784Z,8.57
2022-09-23T18:08:49.608Z,8.60
2022-09-23T18:11:26.031Z,8.35
2022-09-23T18:13:56.088Z,7.95
2022-09-23T18:16:26.361Z,8.23
2022-09-23T18:18:55.388Z,7.05
2022-09-23T18:21:24.191Z,7.82
2022-09-23T18:23:51.348Z,7.12
2022-09-23T18:26:21.380Z,7.15
2022-09-23T18:28:49.782Z,8.90
2022-09-23T18:31:16.925Z,8.15
2022-09-23T18:33:49.501Z,5.95
2022-09-23T18:36:16.505Z,6.43
2022-09-23T18:38:43.444Z,6.10
2022-09-23T18:41:11.728Z,6.12
2022-09-23T18:43:42.277Z,5.90
2022-09-23T18:46:13.468Z,5.87
2022-09-23T18:48:59.637Z,5.47
2022-09-23T18:51:29.258Z,5.07
2022-09-23T18:53:58.511Z,4.93
2022-09-23T18:56:34.626Z,5.00
2022-09-23T18:59:02.175Z,4.60
2022-09-23T19:01:29.238Z,4.95
2022-09-23T19:03:57.284Z,4.60
2022-09-23T19:06:24.895Z,5.10
2022-09-23T19:08:54.234Z,4.65
2022-09-23T19:11:22.550Z,5.28
2022-09-23T19:14:02.020Z,6.30
2022-09-23T19:16:31.906Z,5.75
2022-09-23T19:19:00.026Z,4.57
2022-09-23T19:21:28.345Z,4.40
2022-09-23T19:23:57.883Z,5.05
2022-09-23T19:26:27.676Z,5.43
2022-09-23T19:28:56.770Z,5.15
2022-09-23T19:31:26.114Z,4.82
2022-09-23T19:33:56.437Z,4.82
2022-09-23T19:36:31.043Z,5.18
2022-09-23T19:39:00.378Z,6.93
2022-09-23T19:41:31.885Z,5.55
2022-09-23T19:44:03.338Z,5.15
2022-09-23T19:46:32.488Z,5.03
2022-09-23T19:49:00.990Z,5.57
2022-09-23T19:51:28.341Z,5.47
2022-09-23T19:53:55.225Z,6.53
2022-09-23T19:56:22.587Z,5.53
2022-09-23T19:58:55.613Z,4.80
2022-09-23T20:01:23.353Z,5.75
2022-09-23T20:03:50.748Z,6.55
2022-09-23T20:06:18.134Z,6.15
2022-09-23T20:08:45.503Z,5.75
2022-09-23T20:11:15.813Z,5.62
2022-09-23T20:13:47.174Z,6.15
2022-09-23T20:16:17.165Z,5.35
2022-09-23T20:18:45.986Z,6.78
2022-09-23T20:21:15.469Z,5.87
2022-09-23T20:23:43.074Z,6.30
2022-09-23T20:26:29.135Z,6.00
2022-09-23T20:28:56.292Z,5.68
2022-09-23T20:31:23.849Z,5.47
2022-09-23T20:33:58.169Z,6.60
2022-09-23T20:36:26.999Z,7.15
2022-09-23T20:38:59.692Z,6.57
2022-09-23T20:41:29.804Z,8.05
2022-09-23T20:43:59.479Z,6.45
2022-09-23T20:46:28.701Z,6.28
2022-09-23T20:48:56.862Z,6.35
2022-09-23T20:51:25.552Z,6.40
2022-09-23T20:53:52.971Z,6.47
2022-09-23T20:56:23.491Z,6.47
2022-09-23T20:58:52.626Z,6.85
2022-09-23T21:01:21.099Z,6.53
2022-09-23T21:03:50.334Z,6.50
2022-09-23T21:06:19.469Z,6.07
2022-09-23T21:08:46.914Z,6.28
2022-09-23T21:11:16.524Z,5.78
2022-09-23T21:13:49.185Z,5.78
2022-09-23T21:16:19.142Z,6.70
2022-09-23T21:18:46.836Z,6.32
2022-09-23T21:21:14.360Z,5.90
2022-09-23T21:23:43.363Z,6.57
2022-09-23T21:26:10.610Z,6.55
2022-09-23T21:28:40.297Z,6.80
2022-09-23T21:31:13.330Z,8.93
2022-09-23T21:33:40.471Z,7.95
2022-09-23T21:36:07.904Z,6.72
2022-09-23T21:38:36.322Z,7.07
2022-09-23T21:41:06.270Z,6.57
2022-09-23T21:43:35.529Z,7.05
2022-09-23T21:46:05.354Z,7.40
2022-09-23T21:48:34.314Z,6.97
2022-09-23T21:51:03.816Z,6.65
2022-09-23T21:53:32.291Z,7.20
2022-09-23T21:56:08.471Z,6.93
2022-09-23T21:58:37.897Z,8.50
2022-09-23T22:01:16.178Z,7.55
2022-09-23T22:03:44.932Z,7.70
2022-09-23T22:06:21.620Z,6.82
2022-09-23T22:08:51.520Z,7.00
2022-09-23T22:11:39.720Z,6.95
2022-09-23T22:14:10.019Z,7.10
2022-09-23T22:16:36.978Z,6.30
2022-09-23T22:19:07.617Z,7.05
2022-09-23T22:21:37.480Z,6.90
2022-09-23T22:24:06.853Z,6.97
2022-09-23T22:26:42.573Z,7.10
2022-09-23T22:29:31.237Z,7.93
2022-09-23T22:32:18.725Z,7.10
2022-09-23T22:34:51.463Z,7.62
2022-09-23T22:37:23.830Z,8.35
2022-09-23T22:39:50.641Z,8.60
2022-09-23T22:42:18.193Z,7.00
2022-09-23T22:44:46.004Z,8.52
2022-09-23T22:47:12.843Z,7.78
2022-09-23T22:49:40.830Z,8.10
2022-09-23T22:52:08.431Z,8.65
2022-09-23T22:54:35.609Z,8.02
2022-09-23T22:57:07.577Z,9.27
2022-09-23T22:59:36.004Z,9.07
2022-09-23T23:02:03.143Z,9.25
2022-09-23T23:04:30.609Z,8.75
2022-09-23T23:06:58.761Z,8.20
2022-09-23T23:09:26.284Z,9.10
2022-09-23T23:11:53.206Z,8.95
2022-09-23T23:14:20.716Z,8.48
2022-09-23T23:16:48.776Z,9.23
2022-09-23T23:19:17.187Z,9.75
2022-09-23T23:21:45.490Z,9.80
2022-09-23T23:24:18.325Z,9.50
2022-09-23T23:26:46.699Z,8.80
2022-09-23T23:29:16.165Z,9.50
2022-09-23T23:31:43.960Z,9.30
2022-09-23T23:34:20.551Z,9.80
2022-09-23T23:36:54.749Z,8.30
2022-09-23T23:39:24.648Z,8.80
2022-09-23T23:41:56.121Z,8.45
2022-09-23T23:46:52.106Z,8.75
2022-09-23T23:49:19.487Z,9.48
2022-09-23T23:51:47.409Z,8.90
2022-09-23T23:54:15.393Z,9.35
2022-09-23T23:56:42.757Z,9.30
2022-09-23T23:59:10.102Z,9.25
